Time;durP1;ratioP1;P1;durP2;ratioP2;P2;SDS_P1;SDS_P2;PMS_P1;PMS_P2;Temp;Humidity;BMP_temperature;BMP_pressure;BME280_temperature;BME280_humidity;BME280_pressure;Samples;Min_cycle;Max_cycle;Signal;HPM_P1;HPM_P2
2024/03/12 00:01:12;;;;;;;27.75;17.77;;;5.60;99.90;;;;;;5087519;28;20028;-72
2024/03/12 00:03:42;;;;;;;27.38;18.50;;;5.60;99.90;;;;;;5087649;28;20453;-72
2024/03/12 00:06:09;;;;;;;33.72;19.33;;;5.60;99.90;;;;;;5088018;28;20033;-71
2024/03/12 00:08:35;;;;;;;36.25;21.85;;;5.60;99.90;;;;;;5088199;28;20630;-72
2024/03/12 00:11:01;;;;;;;30.48;20.25;;;5.60;99.90;;;;;;5087996;28;20032;-71
2024/03/12 00:13:27;;;;;;;34.42;20.40;;;5.50;99.90;;;;;;5088001;28;20119;-71
2024/03/12 00:15:52;;;;;;;34.70;20.07;;;5.30;99.90;;;;;;5088222;28;20034;-71
2024/03/12 00:18:18;;;;;;;34.10;20.93;;;5.30;99.90;;;;;;5087651;28;20024;-71
2024/03/12 00:20:45;;;;;;;32.77;18.97;;;5.30;99.90;;;;;;5086596;28;20039;-71
2024/03/12 00:23:11;;;;;;;30.77;19.90;;;5.30;99.90;;;;;;5087192;28;20396;-71
2024/03/12 00:25:37;;;;;;;35.67;19.42;;;5.30;99.90;;;;;;5087782;28;20036;-71
2024/03/12 00:28:05;;;;;;;33.27;19.77;;;5.30;99.90;;;;;;5087389;28;20039;-72
2024/03/12 00:30:31;;;;;;;25.65;17.55;;;5.40;99.90;;;;;;5087523;28;20055;-71
2024/03/12 00:32:57;;;;;;;29.70;19.45;;;5.40;99.90;;;;;;5086452;28;20032;-71
2024/03/12 00:35:25;;;;;;;31.90;19.27;;;5.40;99.90;;;;;;5087234;28;20044;-72
2024/03/12 00:37:54;;;;;;;29.63;17.73;;;5.50;99.90;;;;;;5087308;28;20016;-72
2024/03/12 00:40:22;;;;;;;29.08;18.27;;;5.50;99.90;;;;;;5087540;28;20039;-72
2024/03/12 00:42:48;;;;;;;29.30;18.17;;;5.50;99.90;;;;;;5087580;28;20027;-72
2024/03/12 00:45:14;;;;;;;25.27;17.33;;;5.50;99.90;;;;;;5087701;28;20043;-71
2024/03/12 00:47:41;;;;;;;27.25;15.70;;;5.50;99.90;;;;;;5086559;28;20028;-71
2024/03/12 00:50:11;;;;;;;30.80;17.15;;;5.50;99.90;;;;;;5086181;28;20069;-72
2024/03/12 00:52:41;;;;;;;31.83;18.10;;;5.40;99.90;;;;;;5087125;28;20415;-71
2024/03/12 00:55:16;;;;;;;33.13;18.80;;;5.40;99.90;;;;;;5086443;28;20034;-72
2024/03/12 00:57:42;;;;;;;27.45;18.17;;;5.50;99.90;;;;;;5086756;28;20017;-72
2024/03/12 01:00:22;;;;;;;35.30;18.30;;;5.50;99.90;;;;;;5087385;28;20561;-73
2024/03/12 01:02:52;;;;;;;26.83;16.27;;;5.50;99.90;;;;;;5087595;28;20024;-72
2024/03/12 01:05:18;;;;;;;29.98;17.48;;;5.50;99.90;;;;;;5087502;28;20032;-72
2024/03/12 01:07:45;;;;;;;;;;;5.50;99.90;;;;;;5087683;28;20042;-72
2024/03/12 01:10:10;;;;;;;26.23;16.30;;;5.50;99.90;;;;;;5086728;28;19998;-72
2024/03/12 01:12:39;;;;;;;32.37;17.67;;;5.50;99.90;;;;;;5086453;28;20103;-73
2024/03/12 01:15:09;;;;;;;25.48;17.02;;;5.60;99.90;;;;;;5086636;28;20032;-72
2024/03/12 01:17:37;;;;;;;24.85;15.90;;;5.60;99.90;;;;;;5086891;28;20700;-72
2024/03/12 01:20:08;;;;;;;30.33;18.45;;;5.50;99.90;;;;;;5085975;28;20024;-72
2024/03/12 01:22:34;;;;;;;27.10;16.40;;;5.50;99.90;;;;;;5087658;28;20024;-72
2024/03/12 01:25:01;;;;;;;27.00;16.73;;;5.40;99.90;;;;;;5087511;28;20066;-72
2024/03/12 01:27:26;;;;;;;23.42;15.00;;;5.50;99.90;;;;;;5087644;28;20023;-71
2024/03/12 01:29:52;;;;;;;32.60;16.20;;;5.50;99.90;;;;;;5092719;28;20119;-71
2024/03/12 01:32:20;;;;;;;25.43;16.20;;;5.40;99.90;;;;;;5087102;28;20387;-72
2024/03/12 01:34:45;;;;;;;25.50;16.13;;;5.50;99.90;;;;;;5087444;28;20498;-71
2024/03/12 01:37:15;;;;;;;25.73;17.10;;;5.50;99.90;;;;;;5085337;28;20031;-71
2024/03/12 01:39:41;;;;;;;27.23;17.15;;;5.60;99.90;;;;;;5087167;28;20123;-71
2024/03/12 01:42:07;;;;;;;31.85;18.83;;;5.60;99.90;;;;;;5086227;28;20111;-71
2024/03/12 01:44:37;;;;;;;34.65;19.98;;;5.60;99.90;;;;;;5086682;28;20044;-71
2024/03/12 01:47:04;;;;;;;33.88;19.02;;;5.60;99.90;;;;;;5086114;28;20016;-72
2024/03/12 01:49:30;;;;;;;34.88;20.33;;;5.50;99.90;;;;;;5086554;28;20068;-71
2024/03/12 01:51:56;;;;;;;30.15;18.63;;;5.50;99.90;;;;;;5086223;28;20052;-71
2024/03/12 01:54:21;;;;;;;36.10;18.70;;;5.50;99.90;;;;;;5086705;28;20032;-72
2024/03/12 01:56:47;;;;;;;30.13;17.53;;;5.40;99.90;;;;;;5086966;28;20035;-71
2024/03/12 01:59:15;;;;;;;27.88;17.02;;;5.40;99.90;;;;;;5089724;28;20531;-71
2024/03/12 02:01:42;;;;;;;30.25;18.27;;;5.50;99.90;;;;;;5089868;28;20040;-72
2024/03/12 02:04:09;;;;;;;29.70;16.17;;;5.50;99.90;;;;;;5089910;28;20085;-72
2024/03/12 02:06:34;;;;;;;28.13;17.20;;;5.50;99.90;;;;;;5089855;28;20024;-72
2024/03/12 02:09:03;;;;;;;31.50;19.07;;;5.50;99.90;;;;;;5090150;28;20484;-71
2024/03/12 02:11:28;;;;;;;32.75;18.60;;;5.50;99.90;;;;;;5090042;28;20065;-71
2024/03/12 02:13:54;;;;;;;31.83;18.40;;;5.50;99.90;;;;;;5088839;28;20039;-72
2024/03/12 02:16:20;;;;;;;32.63;18.43;;;5.60;99.90;;;;;;5090514;28;20047;-71
2024/03/12 02:18:45;;;;;;;26.33;17.77;;;5.60;99.90;;;;;;5090446;28;20266;-72
2024/03/12 02:21:11;;;;;;;30.80;18.60;;;5.60;99.90;;;;;;5089992;28;20036;-71
2024/03/12 02:23:40;;;;;;;29.37;17.80;;;5.60;99.90;;;;;;5090040;28;20399;-71
2024/03/12 02:26:06;;;;;;;31.25;17.75;;;5.70;99.90;;;;;;5090050;28;20115;-71
2024/03/12 02:28:32;;;;;;;29.80;18.05;;;5.80;99.90;;;;;;5089971;28;20495;-71
2024/03/12 02:31:01;;;;;;;31.60;18.13;;;5.80;99.90;;;;;;5089681;28;20050;-72
2024/03/12 02:33:27;;;;;;;27.13;17.05;;;5.80;99.90;;;;;;5089869;28;20052;-71
2024/03/12 02:35:52;;;;;;;27.85;18.13;;;5.70;99.90;;;;;;5090128;28;20245;-72
2024/03/12 02:38:18;;;;;;;24.83;16.13;;;5.70;99.90;;;;;;5090199;28;20040;-72
2024/03/12 02:40:45;;;;;;;27.42;16.58;;;5.70;99.90;;;;;;5089815;28;20548;-72
2024/03/12 02:43:11;;;;;;;23.42;16.70;;;5.70;99.90;;;;;;5089737;28;20503;-72
2024/03/12 02:45:38;;;;;;;32.60;17.75;;;5.70;99.90;;;;;;5089872;28;20036;-72
2024/03/12 02:48:05;;;;;;;25.15;16.33;;;5.80;99.90;;;;;;5089507;28;20062;-71
2024/03/12 02:50:31;;;;;;;24.08;15.20;;;5.80;99.90;;;;;;5089609;28;20039;-72
2024/03/12 02:52:57;;;;;;;26.92;14.68;;;5.80;99.90;;;;;;5089745;28;20023;-71
2024/03/12 02:55:23;;;;;;;23.23;14.48;;;5.80;99.90;;;;;;5089724;28;20044;-71
2024/03/12 02:57:48;;;;;;;27.88;15.30;;;5.80;99.90;;;;;;5089917;28;20024;-71
2024/03/12 03:00:14;;;;;;;33.00;16.10;;;5.90;99.90;;;;;;5087530;28;20092;-71
2024/03/12 03:02:41;;;;;;;21.73;14.57;;;5.80;99.90;;;;;;5089210;28;20031;-71
2024/03/12 03:05:07;;;;;;;;;;;5.80;99.90;;;;;;5105433;28;20309;-72
2024/03/12 03:07:33;;;;;;;27.35;16.45;;;5.80;99.90;;;;;;5088934;28;19904;-72
2024/03/12 03:09:58;;;;;;;30.55;18.08;;;5.80;99.90;;;;;;5090108;28;20031;-71
2024/03/12 03:12:25;;;;;;;30.27;17.50;;;5.80;99.90;;;;;;5090138;28;20043;-72
2024/03/12 03:14:51;;;;;;;34.95;17.17;;;5.80;99.90;;;;;;5089393;28;20067;-71
2024/03/12 03:17:17;;;;;;;26.40;16.27;;;5.90;99.90;;;;;;5089538;28;20527;-71
2024/03/12 03:19:43;;;;;;;25.95;14.75;;;5.80;99.90;;;;;;5089244;28;20032;-71
2024/03/12 03:22:09;;;;;;;20.80;14.57;;;5.80;99.90;;;;;;5089484;28;20078;-71
2024/03/12 03:24:36;;;;;;;26.75;13.57;;;5.80;99.90;;;;;;5089265;28;20892;-71
2024/03/12 03:27:05;;;;;;;26.45;13.55;;;5.80;99.90;;;;;;5089283;28;20056;-71
2024/03/12 03:29:33;;;;;;;25.00;13.93;;;5.80;99.90;;;;;;5088558;28;20020;-71
2024/03/12 03:31:58;;;;;;;23.77;14.40;;;5.90;99.90;;;;;;5088940;28;20034;-71
2024/03/12 03:34:28;;;;;;;23.55;13.85;;;5.80;99.90;;;;;;5086825;28;20016;-71
2024/03/12 03:36:57;;;;;;;24.13;15.35;;;5.90;99.90;;;;;;5088582;28;20093;-72
2024/03/12 03:39:26;;;;;;;23.98;15.38;;;5.90;99.90;;;;;;5088724;28;20022;-71
2024/03/12 03:41:52;;;;;;;21.88;14.23;;;5.90;99.90;;;;;;5087529;28;20112;-71
2024/03/12 03:44:18;;;;;;;;;;;5.90;99.90;;;;;;5089166;28;20488;-71
2024/03/12 03:46:44;;;;;;;24.88;14.93;;;5.90;99.90;;;;;;5088503;28;19912;-71
2024/03/12 03:49:10;;;;;;;26.15;15.80;;;6.00;99.90;;;;;;5087208;28;20081;-71
2024/03/12 03:51:36;;;;;;;24.03;15.93;;;6.00;99.90;;;;;;5088451;28;20040;-71
2024/03/12 03:54:02;;;;;;;26.00;14.25;;;6.10;99.90;;;;;;5088312;28;20024;-71
2024/03/12 03:56:29;;;;;;;32.33;15.95;;;6.10;99.90;;;;;;5086810;28;20028;-71
2024/03/12 03:58:57;;;;;;;27.17;15.15;;;6.10;99.90;;;;;;5088491;28;20032;-71
2024/03/12 04:01:24;;;;;;;25.70;15.10;;;6.10;99.90;;;;;;5088504;28;20035;-71
2024/03/12 04:03:53;;;;;;;28.38;16.80;;;6.00;99.90;;;;;;5087982;28;20515;-71
2024/03/12 04:06:21;;;;;;;26.27;16.77;;;6.00;99.90;;;;;;5088472;28;20036;-71
2024/03/12 04:08:51;;;;;;;26.20;16.55;;;6.00;99.90;;;;;;5088320;28;20065;-71
2024/03/12 04:11:20;;;;;;;25.17;15.32;;;6.10;99.90;;;;;;5088406;28;20391;-71
2024/03/12 04:13:48;;;;;;;26.58;16.55;;;6.00;99.90;;;;;;5087617;28;20020;-71
2024/03/12 04:16:14;;;;;;;28.05;16.20;;;6.10;99.90;;;;;;5087862;28;20028;-71
2024/03/12 04:18:43;;;;;;;;;;;6.10;99.90;;;;;;5088845;28;20051;-71
2024/03/12 04:21:12;;;;;;;26.77;16.90;;;6.00;99.90;;;;;;5086998;28;19929;-71
2024/03/12 04:23:38;;;;;;;30.27;17.60;;;6.00;99.90;;;;;;5087399;28;20028;-71
2024/03/12 04:26:04;;;;;;;30.85;17.08;;;6.00;99.90;;;;;;5087625;28;20511;-71
2024/03/12 04:28:30;;;;;;;27.67;17.45;;;6.00;99.90;;;;;;5087571;28;20043;-71
2024/03/12 04:30:56;;;;;;;27.55;16.25;;;5.90;99.90;;;;;;5087337;28;20036;-71
2024/03/12 04:33:24;;;;;;;;;;;6.00;99.90;;;;;;5087931;28;20039;-71
2024/03/12 04:35:50;;;;;;;27.88;16.95;;;6.00;99.90;;;;;;5087827;28;19935;-71
2024/03/12 04:38:18;;;;;;;30.10;18.52;;;6.00;99.90;;;;;;5086256;28;20492;-71
2024/03/12 04:40:47;;;;;;;24.13;16.05;;;5.90;99.90;;;;;;5088051;28;20028;-71
2024/03/12 04:43:13;;;;;;;29.00;16.55;;;5.90;99.90;;;;;;5087689;28;20055;-71
2024/03/12 04:45:40;;;;;;;32.70;18.23;;;5.90;99.90;;;;;;5087139;28;20109;-71
2024/03/12 04:48:07;;;;;;;28.65;17.52;;;5.90;99.90;;;;;;5088241;28;20099;-71
2024/03/12 04:50:33;;;;;;;27.58;17.90;;;5.90;99.90;;;;;;5088248;28;20032;-71
2024/03/12 04:52:59;;;;;;;35.23;19.50;;;5.90;99.90;;;;;;5086885;28;20024;-71
2024/03/12 04:55:24;;;;;;;33.30;20.37;;;5.90;99.90;;;;;;5087489;28;20438;-71
2024/03/12 04:57:50;;;;;;;36.83;21.03;;;5.90;99.90;;;;;;5087951;28;20269;-71
2024/03/12 05:00:18;;;;;;;35.37;22.10;;;5.90;99.90;;;;;;5078114;28;20060;-71
2024/03/12 05:02:50;;;;;;;31.63;20.42;;;5.90;99.90;;;;;;5077946;28;20426;-72
2024/03/12 05:05:20;;;;;;;40.05;19.98;;;5.90;99.90;;;;;;5081056;28;20040;-71
2024/03/12 05:07:50;;;;;;;32.10;19.55;;;5.90;99.90;;;;;;5074037;28;20020;-72
2024/03/12 05:10:16;;;;;;;35.88;19.38;;;6.00;99.90;;;;;;5081300;28;20169;-72
2024/03/12 05:12:42;;;;;;;32.20;20.17;;;6.00;99.90;;;;;;5076803;28;20046;-72
2024/03/12 05:15:11;;;;;;;37.72;18.23;;;6.00;99.90;;;;;;5074283;28;20037;-72
2024/03/12 05:17:39;;;;;;;25.67;17.55;;;6.10;99.90;;;;;;5075263;28;20042;-71
2024/03/12 05:20:09;;;;;;;31.85;19.75;;;6.10;99.90;;;;;;5076503;28;20104;-71
2024/03/12 05:22:37;;;;;;;32.33;20.58;;;6.20;99.90;;;;;;5075206;28;20025;-71
2024/03/12 05:25:03;;;;;;;34.97;20.05;;;6.20;99.90;;;;;;5075336;28;20045;-71
2024/03/12 05:27:37;;;;;;;31.42;19.45;;;6.20;99.90;;;;;;5074331;28;20544;-72
2024/03/12 05:30:14;;;;;;;33.83;20.55;;;6.20;99.90;;;;;;5072489;28;20059;-72
2024/03/12 05:32:47;;;;;;;32.55;19.67;;;6.20;99.90;;;;;;5076301;28;20120;-72
2024/03/12 05:35:22;;;;;;;33.55;19.45;;;6.20;99.90;;;;;;5089623;28;20055;-72
2024/03/12 05:38:01;;;;;;;30.90;18.88;;;6.20;99.90;;;;;;5083898;28;20758;-72
2024/03/12 05:40:42;;;;;;;41.42;20.20;;;6.20;99.90;;;;;;5081342;28;20063;-71
2024/03/12 05:48:40;;;;;;;36.65;19.25;;;6.10;99.90;;;;;;5080723;28;20039;-72
2024/03/12 05:51:07;;;;;;;33.65;18.67;;;6.20;99.90;;;;;;5080562;28;20035;-72
2024/03/12 05:53:34;;;;;;;29.63;18.65;;;6.20;99.90;;;;;;5082596;28;20177;-72
2024/03/12 05:55:59;;;;;;;;;;;6.20;99.90;;;;;;5079246;28;20027;-72
2024/03/12 05:58:25;;;;;;;33.47;20.20;;;6.20;99.90;;;;;;5073138;28;19908;-72
2024/03/12 06:00:51;;;;;;;34.53;19.30;;;6.20;99.90;;;;;;5081120;28;20039;-72
2024/03/12 06:03:18;;;;;;;39.25;21.40;;;6.20;99.90;;;;;;5080800;28;20332;-72
2024/03/12 06:05:44;;;;;;;35.20;19.67;;;6.20;99.90;;;;;;5078571;28;20046;-72
2024/03/12 06:08:10;;;;;;;36.93;20.70;;;6.20;99.90;;;;;;5078393;28;20027;-73
2024/03/12 06:10:36;;;;;;;32.17;19.67;;;6.30;99.90;;;;;;5076129;28;20416;-72
2024/03/12 06:13:02;;;;;;;;;;;6.30;99.90;;;;;;5078988;28;20496;-72
2024/03/12 06:15:29;;;;;;;33.78;19.67;;;6.40;99.90;;;;;;5078438;28;19908;-72
2024/03/12 06:17:55;;;;;;;32.42;19.08;;;6.40;99.90;;;;;;5077872;28;20028;-72
2024/03/12 06:20:20;;;;;;;32.23;21.27;;;6.40;99.90;;;;;;5080801;28;20039;-72
2024/03/12 06:22:46;;;;;;;39.33;20.55;;;6.40;99.90;;;;;;5080170;28;20447;-72
2024/03/12 06:25:12;;;;;;;37.60;20.10;;;6.40;99.90;;;;;;5076668;28;20050;-72
2024/03/12 06:27:38;;;;;;;38.50;21.58;;;6.40;99.90;;;;;;5078802;28;20028;-73
2024/03/12 06:30:05;;;;;;;34.47;22.10;;;6.50;99.90;;;;;;5073788;28;20047;-73
2024/03/12 06:32:31;;;;;;;37.13;21.08;;;6.50;99.90;;;;;;5079449;28;20020;-73
2024/03/12 06:34:57;;;;;;;37.30;21.90;;;6.50;99.90;;;;;;5078122;28;20032;-73
2024/03/12 06:37:25;;;;;;;35.65;22.10;;;6.50;99.90;;;;;;5078321;28;20043;-73
2024/03/12 06:39:52;;;;;;;39.13;22.88;;;6.60;99.90;;;;;;5082866;28;20058;-72
2024/03/12 06:42:19;;;;;;;41.92;24.30;;;6.50;99.90;;;;;;5077638;28;20035;-72
2024/03/12 06:44:47;;;;;;;39.35;23.08;;;6.50;99.90;;;;;;5078333;28;20123;-72
2024/03/12 06:47:14;;;;;;;45.00;21.48;;;6.60;99.90;;;;;;5079504;28;20062;-72
2024/03/12 06:49:44;;;;;;;37.05;22.90;;;6.60;99.90;;;;;;5079175;28;20032;-72
2024/03/12 06:52:10;;;;;;;35.55;21.13;;;6.50;99.90;;;;;;5076639;28;20112;-72
2024/03/12 06:54:36;;;;;;;35.33;21.80;;;6.60;99.90;;;;;;5079467;28;20589;-72
2024/03/12 06:57:04;;;;;;;36.92;20.77;;;6.60;99.90;;;;;;5079176;28;20663;-72
2024/03/12 06:59:31;;;;;;;34.63;20.25;;;6.60;99.90;;;;;;5071226;28;20480;-72
2024/03/12 07:01:57;;;;;;;32.08;19.67;;;6.80;99.90;;;;;;5079963;28;20025;-73
2024/03/12 07:04:23;;;;;;;35.53;19.20;;;6.90;99.90;;;;;;5080302;28;20039;-73
2024/03/12 07:06:52;;;;;;;33.47;18.80;;;6.90;99.90;;;;;;5078358;28;20036;-73
2024/03/12 07:09:26;;;;;;;35.75;20.20;;;6.90;99.90;;;;;;5078612;28;20032;-73
2024/03/12 07:11:58;;;;;;;32.92;20.00;;;7.00;99.90;;;;;;5086263;28;20032;-73
2024/03/12 07:14:27;;;;;;;30.45;18.55;;;7.20;99.90;;;;;;5082438;28;20031;-71
2024/03/12 07:16:55;;;;;;;29.67;19.00;;;7.40;99.90;;;;;;5079233;28;20546;-71
2024/03/12 07:19:22;;;;;;;36.72;19.48;;;7.50;99.90;;;;;;5079574;28;20020;-71
2024/03/12 07:21:49;;;;;;;32.15;18.10;;;7.50;99.90;;;;;;5077549;28;20593;-72
2024/03/12 07:24:15;;;;;;;31.30;16.15;;;7.50;99.90;;;;;;5076543;28;20027;-71
2024/03/12 07:26:41;;;;;;;27.60;16.38;;;7.50;99.90;;;;;;5083023;28;20039;-71
2024/03/12 07:29:06;;;;;;;29.65;17.23;;;7.60;99.90;;;;;;5085130;28;20047;-73
2024/03/12 07:31:35;;;;;;;32.33;17.10;;;7.80;99.90;;;;;;5078269;28;20182;-72
2024/03/12 07:34:01;;;;;;;25.70;15.55;;;8.10;99.90;;;;;;5077891;28;20016;-71
2024/03/12 07:36:30;;;;;;;27.30;15.82;;;8.10;99.90;;;;;;5078872;28;20047;-71
2024/03/12 07:38:59;;;;;;;23.92;14.75;;;8.20;99.90;;;;;;5077926;28;20059;-71
2024/03/12 07:41:26;;;;;;;22.35;14.52;;;8.40;99.90;;;;;;5077962;28;20035;-71
2024/03/12 07:43:52;;;;;;;26.17;14.57;;;8.70;99.90;;;;;;5078153;28;20499;-70
2024/03/12 07:46:17;;;;;;;25.85;14.40;;;9.00;99.90;;;;;;5081636;28;20047;-71
2024/03/12 07:48:44;;;;;;;22.30;13.20;;;9.20;99.90;;;;;;5084730;28;20020;-71
2024/03/12 07:51:09;;;;;;;17.80;12.43;;;9.20;99.90;;;;;;5082561;28;20036;-71
2024/03/12 07:53:36;;;;;;;22.45;13.68;;;9.40;99.90;;;;;;5079426;28;20399;-71
2024/03/12 07:56:05;;;;;;;13.75;10.90;;;11.10;99.90;;;;;;5080440;28;20524;-72
2024/03/12 07:58:30;;;;;;;12.30;7.78;;;12.10;99.90;;;;;;5081717;28;20024;-71
2024/03/12 08:00:57;;;;;;;17.45;9.35;;;13.80;99.90;;;;;;5083801;28;20042;-72
2024/03/12 08:03:22;;;;;;;10.90;7.40;;;15.70;98.50;;;;;;5080978;28;20044;-73
2024/03/12 08:05:48;;;;;;;7.83;5.67;;;15.90;95.50;;;;;;5077076;28;20510;-73
2024/03/12 08:08:14;;;;;;;9.27;5.50;;;14.20;93.50;;;;;;5077205;28;20028;-73
2024/03/12 08:10:40;;;;;;;12.73;5.35;;;13.80;95.00;;;;;;5076145;28;20043;-73
2024/03/12 08:13:05;;;;;;;7.57;4.17;;;13.00;99.40;;;;;;5082697;28;20028;-72
2024/03/12 08:15:31;;;;;;;8.07;4.90;;;11.40;99.90;;;;;;5081199;28;20028;-71
2024/03/12 08:17:57;;;;;;;8.27;5.18;;;11.10;99.90;;;;;;5075901;28;20028;-71
2024/03/12 08:20:23;;;;;;;7.20;4.55;;;10.70;99.90;;;;;;5078732;28;20029;-71
2024/03/12 08:22:49;;;;;;;5.93;3.83;;;10.50;99.90;;;;;;5070226;28;20490;-71
2024/03/12 08:25:16;;;;;;;7.10;3.90;;;10.40;99.90;;;;;;5077147;28;20040;-71
2024/03/12 08:27:42;;;;;;;6.00;3.80;;;10.30;99.90;;;;;;5076955;28;20052;-72
2024/03/12 08:30:09;;;;;;;4.40;2.80;;;10.30;99.90;;;;;;5074119;28;20066;-71
2024/03/12 08:32:35;;;;;;;;;;;10.10;99.90;;;;;;5080038;28;20043;-71
2024/03/12 08:35:01;;;;;;;5.28;3.45;;;10.10;99.90;;;;;;5075371;28;19913;-72
2024/03/12 08:37:27;;;;;;;5.55;3.42;;;10.20;99.90;;;;;;5076641;28;20030;-71
2024/03/12 08:39:54;;;;;;;4.75;3.70;;;10.30;99.90;;;;;;5078375;28;20044;-71
2024/03/12 08:42:20;;;;;;;5.25;3.30;;;10.30;99.90;;;;;;5077917;28;20021;-71
2024/03/12 08:44:46;;;;;;;5.88;3.55;;;10.40;99.90;;;;;;5079576;28;20063;-72
2024/03/12 08:47:11;;;;;;;5.03;3.60;;;10.70;99.90;;;;;;5076873;28;20068;-70
2024/03/12 08:49:38;;;;;;;4.97;3.55;;;11.40;99.90;;;;;;5077950;28;20073;-71
2024/03/12 08:52:04;;;;;;;5.72;3.22;;;11.30;99.90;;;;;;5072402;28;20044;-70
2024/03/12 08:54:30;;;;;;;4.22;2.80;;;11.00;99.90;;;;;;5078325;28;20573;-71
2024/03/12 08:56:56;;;;;;;4.90;2.63;;;10.50;99.90;;;;;;5073375;28;20024;-70
2024/03/12 08:59:22;;;;;;;3.87;3.00;;;10.40;99.90;;;;;;5070049;28;20043;-70
2024/03/12 09:01:49;;;;;;;3.45;2.30;;;10.60;99.90;;;;;;5073698;28;20090;-70
2024/03/12 09:04:14;;;;;;;;;;;10.50;99.90;;;;;;5068179;28;20086;-70
2024/03/12 09:06:40;;;;;;;2.10;1.83;;;10.60;99.90;;;;;;5079324;28;19916;-69
2024/03/12 09:09:07;;;;;;;3.65;1.90;;;10.60;99.90;;;;;;5097128;28;20020;-70
2024/03/12 09:11:32;;;;;;;2.60;1.73;;;10.90;99.90;;;;;;5077882;28;20035;-70
2024/03/12 09:13:59;;;;;;;3.37;1.60;;;11.60;99.90;;;;;;5082127;28;20377;-70
2024/03/12 09:16:25;;;;;;;;;;;11.70;99.90;;;;;;5073099;28;20032;-70
2024/03/12 09:18:50;;;;;;;3.25;1.55;;;11.90;99.90;;;;;;5077359;28;19927;-69
2024/03/12 09:21:18;;;;;;;2.40;1.40;;;12.40;99.90;;;;;;5076471;28;20663;-70
2024/03/12 09:23:43;;;;;;;2.47;1.60;;;12.30;99.90;;;;;;5074735;28;20046;-74
2024/03/12 09:26:10;;;;;;;2.10;1.53;;;12.50;99.90;;;;;;5076472;28;20403;-72
2024/03/12 09:28:38;;;;;;;2.83;2.17;;;12.70;97.40;;;;;;5077126;28;20032;-70
2024/03/12 09:31:05;;;;;;;1.65;1.52;;;13.60;99.20;;;;;;5068275;28;20462;-70
2024/03/12 09:33:31;;;;;;;;;;;13.40;96.50;;;;;;5075064;28;20029;-72
2024/03/12 09:35:57;;;;;;;4.45;1.20;;;13.10;97.50;;;;;;5070649;28;19915;-72
2024/03/12 09:38:24;;;;;;;2.92;1.50;;;14.10;96.00;;;;;;5077926;28;20503;-71
2024/03/12 09:40:50;;;;;;;;;;;13.20;95.50;;;;;;5076273;28;20094;-72
2024/03/12 09:43:18;;;;;;;2.10;1.27;;;13.60;97.00;;;;;;5076530;28;19916;-72
2024/03/12 09:45:45;;;;;;;1.55;0.98;;;14.30;93.50;;;;;;5077432;28;20052;-70
2024/03/12 09:48:14;;;;;;;2.25;1.33;;;15.50;92.60;;;;;;5078010;28;20070;-71
2024/03/12 09:50:42;;;;;;;1.45;1.17;;;16.80;90.50;;;;;;5077468;28;20035;-72
2024/03/12 09:53:11;;;;;;;1.85;1.30;;;16.50;88.60;;;;;;5075634;28;20012;-72
2024/03/12 09:55:39;;;;;;;4.35;1.45;;;15.80;89.60;;;;;;5079590;28;20044;-72
2024/03/12 09:58:06;;;;;;;2.08;1.38;;;15.00;91.10;;;;;;5067431;28;20043;-72
2024/03/12 10:00:33;;;;;;;1.90;1.30;;;14.30;91.30;;;;;;5075424;28;20036;-72
2024/03/12 10:02:59;;;;;;;3.55;1.50;;;13.60;89.90;;;;;;5072732;28;20042;-72
2024/03/12 10:05:25;;;;;;;3.78;1.77;;;13.50;94.20;;;;;;5074150;28;20036;-72
2024/03/12 10:08:14;;;;;;;5.32;1.77;;;13.50;93.20;;;;;;5078109;28;20028;-72
2024/03/12 10:10:45;;;;;;;3.20;1.73;;;13.60;92.40;;;;;;5081022;28;20391;-72
2024/03/12 10:13:14;;;;;;;3.80;1.80;;;13.90;93.30;;;;;;5078052;28;20024;-70
2024/03/12 10:15:54;;;;;;;3.53;1.70;;;13.60;91.20;;;;;;5074937;28;20024;-71
2024/03/12 10:18:20;;;;;;;3.97;2.08;;;13.70;91.60;;;;;;5076832;28;20024;-71
2024/03/12 10:20:54;;;;;;;3.25;1.83;;;14.10;92.40;;;;;;5086091;28;20024;-71
2024/03/12 10:23:21;;;;;;;3.90;2.25;;;14.60;92.30;;;;;;5087219;28;20035;-71
2024/03/12 10:25:48;;;;;;;3.30;1.85;;;14.10;93.60;;;;;;5087813;28;20051;-71
2024/03/12 10:28:19;;;;;;;5.18;1.58;;;13.90;93.50;;;;;;5086806;28;20031;-71
2024/03/12 10:30:45;;;;;;;1.92;1.50;;;14.20;92.00;;;;;;5088700;28;20027;-71
2024/03/12 10:33:17;;;;;;;3.67;1.70;;;14.30;91.80;;;;;;5088614;28;20610;-71
2024/03/12 10:35:44;;;;;;;4.00;1.60;;;13.90;91.50;;;;;;5087652;28;20032;-71
2024/03/12 10:38:28;;;;;;;2.95;1.77;;;14.00;91.60;;;;;;5088907;28;20016;-72
2024/03/12 10:40:55;;;;;;;4.07;1.90;;;13.50;93.10;;;;;;5089501;28;20028;-71
2024/03/12 10:43:24;;;;;;;4.28;2.10;;;13.50;93.80;;;;;;5089119;28;20028;-72
2024/03/12 10:45:50;;;;;;;2.25;1.88;;;13.40;93.00;;;;;;5088852;28;20503;-71
2024/03/12 10:48:18;;;;;;;2.83;1.77;;;13.30;94.50;;;;;;5089148;28;20622;-72
2024/03/12 10:50:44;;;;;;;5.13;1.70;;;13.40;94.40;;;;;;5089214;28;20043;-71
2024/03/12 10:53:11;;;;;;;3.15;1.95;;;13.50;95.30;;;;;;5089053;28;20016;-71
2024/03/12 10:55:38;;;;;;;3.20;1.55;;;13.20;93.90;;;;;;5089475;28;20035;-71
2024/03/12 10:58:06;;;;;;;5.47;1.95;;;13.40;93.70;;;;;;5089110;28;20109;-71
2024/03/12 11:00:33;;;;;;;4.28;1.90;;;13.60;92.00;;;;;;5088911;28;20035;-71
2024/03/12 11:02:59;;;;;;;;;;;13.30;92.00;;;;;;5088208;28;20544;-71
2024/03/12 11:05:29;;;;;;;4.40;2.13;;;13.40;93.70;;;;;;5088982;28;20010;-71
2024/03/12 11:07:57;;;;;;;4.22;2.00;;;13.70;92.30;;;;;;5088806;28;20032;-71
2024/03/12 11:10:26;;;;;;;3.30;1.90;;;13.70;92.30;;;;;;5088853;28;20024;-71
2024/03/12 11:12:54;;;;;;;8.52;2.67;;;14.00;91.80;;;;;;5088525;28;20031;-72
2024/03/12 11:15:19;;;;;;;6.75;2.72;;;13.80;91.70;;;;;;5088518;28;20491;-72
2024/03/12 11:17:49;;;;;;;3.70;2.17;;;13.60;92.60;;;;;;5088840;28;20024;-72
2024/03/12 11:20:22;;;;;;;3.35;1.60;;;13.30;93.10;;;;;;5088669;28;20051;-71
2024/03/12 11:22:52;;;;;;;5.38;2.13;;;13.30;92.90;;;;;;5088537;28;20510;-71
2024/03/12 11:25:43;;;;;;;5.03;1.95;;;13.70;92.20;;;;;;5088976;28;20031;-71
2024/03/12 11:28:26;;;;;;;4.32;2.28;;;13.80;92.80;;;;;;5088478;28;20162;-72
2024/03/12 11:30:54;;;;;;;5.53;2.17;;;14.00;92.40;;;;;;5103838;28;20043;-71
2024/03/12 11:33:45;;;;;;;5.55;2.22;;;14.10;92.70;;;;;;5088392;28;20044;-71
2024/03/12 11:36:22;;;;;;;5.20;1.70;;;14.10;91.10;;;;;;5088524;28;20031;-71
2024/03/12 11:38:49;;;;;;;;;;;14.10;90.40;;;;;;5088524;28;20028;-72
2024/03/12 11:41:16;;;;;;;3.78;2.10;;;14.00;88.60;;;;;;5087581;28;19908;-72
2024/03/12 11:43:42;;;;;;;4.00;1.77;;;13.80;88.60;;;;;;5088170;28;20028;-71
2024/03/12 11:46:15;;;;;;;3.45;1.50;;;13.60;90.50;;;;;;5088078;28;20028;-72
2024/03/12 11:48:41;;;;;;;4.60;2.28;;;13.80;91.20;;;;;;5088082;28;20060;-72
2024/03/12 11:51:14;;;;;;;4.15;1.85;;;13.90;91.10;;;;;;5088189;28;20036;-72
2024/03/12 11:53:42;;;;;;;5.78;2.00;;;13.70;90.80;;;;;;5087639;28;20037;-72
2024/03/12 11:56:18;;;;;;;4.35;1.85;;;13.90;90.20;;;;;;5088053;28;20024;-72
2024/03/12 11:58:47;;;;;;;3.17;1.88;;;14.10;91.10;;;;;;5087715;28;20027;-71
2024/03/12 12:01:18;;;;;;;3.72;2.08;;;14.40;90.70;;;;;;5087279;28;20526;-72
2024/03/12 12:03:44;;;;;;;3.03;2.00;;;14.30;90.30;;;;;;5087621;28;20040;-72
2024/03/12 12:06:11;;;;;;;2.90;1.67;;;14.20;90.70;;;;;;5087195;28;20403;-72
2024/03/12 12:08:37;;;;;;;2.75;1.60;;;14.40;90.60;;;;;;5087460;28;20403;-72
2024/03/12 12:11:07;;;;;;;;;;;14.20;89.70;;;;;;5087899;28;20039;-72
2024/03/12 12:13:33;;;;;;;9.10;3.00;;;14.10;90.00;;;;;;5087318;28;19908;-72
2024/03/12 12:16:04;;;;;;;7.90;2.40;;;14.00;90.40;;;;;;5087860;28;20028;-72
2024/03/12 12:18:31;;;;;;;2.80;2.00;;;14.10;90.80;;;;;;5103147;28;20641;-72
2024/03/12 12:20:59;;;;;;;2.85;1.73;;;13.80;89.20;;;;;;5087771;28;20020;-73
2024/03/12 12:23:26;;;;;;;4.30;1.80;;;13.70;87.60;;;;;;5087506;28;20028;-72
2024/03/12 12:25:56;;;;;;;2.05;1.75;;;13.50;86.70;;;;;;5087338;28;20040;-72
2024/03/12 12:28:25;;;;;;;3.72;2.05;;;13.50;87.50;;;;;;5087443;28;20024;-73
2024/03/12 12:30:59;;;;;;;4.47;2.20;;;13.40;91.20;;;;;;5087555;28;20066;-72
2024/03/12 12:33:25;;;;;;;4.65;2.40;;;13.40;90.30;;;;;;5087183;28;20023;-73
2024/03/12 12:35:52;;;;;;;3.05;1.92;;;13.10;88.30;;;;;;5087765;28;20090;-73
2024/03/12 12:38:19;;;;;;;4.20;2.42;;;13.40;90.10;;;;;;5086963;28;20032;-72
2024/03/12 12:40:45;;;;;;;6.68;2.40;;;13.20;90.20;;;;;;5087479;28;20061;-72
2024/03/12 12:43:17;;;;;;;8.63;2.30;;;13.40;90.10;;;;;;5102111;28;20406;-72
2024/03/12 12:45:46;;;;;;;3.90;2.50;;;13.40;90.80;;;;;;5086826;28;20047;-72
2024/03/12 12:48:12;;;;;;;4.07;2.10;;;13.40;90.20;;;;;;5087891;28;20046;-72
2024/03/12 12:50:38;;;;;;;2.97;2.00;;;13.40;90.30;;;;;;5087473;28;20832;-71
2024/03/12 12:53:09;;;;;;;4.80;2.13;;;13.40;88.20;;;;;;5086508;28;20051;-72